Time;durP1;ratioP1;P1;durP2;ratioP2;P2;SDS_P1;SDS_P2;PMS_P1;PMS_P2;Temp;Humidity;BMP_temperature;BMP_pressure;BME280_temperature;BME280_humidity;BME280_pressure;Samples;Min_cycle;Max_cycle;Signal;HPM_P1;HPM_P2
2022/09/14 00:00:18;;;;;;;10.07;8.20;;;16.40;99.90;;;;;;2105316;28;20028;-70
2022/09/14 00:01:21;;;;;;;8.70;7.80;;;16.40;99.90;;;;;;2104818;28;20020;-69
2022/09/14 00:02:21;;;;;;;9.40;8.10;;;16.30;99.90;;;;;;2105207;28;20111;-70
2022/09/14 00:03:35;;;;;;;10.27;7.80;;;16.40;99.90;;;;;;2105315;28;20043;-70
2022/09/14 00:04:35;;;;;;;9.88;7.97;;;16.40;99.90;;;;;;2104618;28;20048;-69
2022/09/14 00:05:36;;;;;;;10.57;7.97;;;16.40;99.90;;;;;;2104602;28;20115;-69
2022/09/14 00:06:37;;;;;;;10.65;8.10;;;16.40;99.90;;;;;;2104940;28;20076;-69
2022/09/14 00:07:38;;;;;;;9.95;8.02;;;16.40;99.90;;;;;;2105092;28;20020;-69
2022/09/14 00:08:39;;;;;;;10.68;8.10;;;16.30;99.90;;;;;;2104567;28;20135;-70
2022/09/14 00:09:39;;;;;;;11.23;8.32;;;16.30;99.90;;;;;;2104803;28;20408;-69
2022/09/14 00:10:42;;;;;;;9.32;7.60;;;16.30;99.90;;;;;;2104852;28;20030;-71
2022/09/14 00:11:43;;;;;;;9.55;7.88;;;16.30;99.90;;;;;;2104463;28;20789;-70
2022/09/14 00:12:44;;;;;;;10.00;7.53;;;16.30;99.90;;;;;;2104338;28;20094;-70
2022/09/14 00:13:46;;;;;;;8.73;7.57;;;16.30;99.90;;;;;;2104309;28;20510;-70
2022/09/14 00:14:47;;;;;;;11.05;7.75;;;16.20;99.90;;;;;;2104301;28;20036;-70
2022/09/14 00:15:48;;;;;;;8.45;7.40;;;16.20;99.90;;;;;;2105139;28;20481;-70
2022/09/14 00:16:50;;;;;;;8.50;7.38;;;16.20;99.90;;;;;;2104984;28;20107;-70
2022/09/14 00:17:51;;;;;;;10.25;7.45;;;16.30;99.90;;;;;;2104857;28;20024;-70
2022/09/14 00:18:54;;;;;;;11.00;7.53;;;16.20;99.90;;;;;;2104625;28;20649;-71
2022/09/14 00:19:54;;;;;;;8.30;7.50;;;16.20;99.90;;;;;;2104338;28;20098;-71
2022/09/14 00:21:09;;;;;;;9.93;7.53;;;16.20;99.90;;;;;;2104669;28;20043;-71
2022/09/14 00:22:10;;;;;;;10.32;7.53;;;16.20;99.90;;;;;;2104330;28;20023;-71
2022/09/14 00:23:11;;;;;;;9.88;7.80;;;16.10;99.90;;;;;;2104258;28;20028;-71
2022/09/14 00:24:12;;;;;;;8.98;7.25;;;16.20;99.90;;;;;;2104160;28;20032;-71
2022/09/14 00:25:13;;;;;;;8.88;7.35;;;16.20;99.90;;;;;;2104127;28;20399;-71
2022/09/14 00:26:16;;;;;;;8.48;7.57;;;16.20;99.90;;;;;;2104815;28;20130;-71
2022/09/14 00:27:17;;;;;;;7.82;7.03;;;16.10;99.90;;;;;;2104834;28;20032;-71
2022/09/14 00:28:18;;;;;;;7.50;6.80;;;16.10;99.90;;;;;;2104340;28;20019;-71
2022/09/14 00:29:19;;;;;;;8.43;6.88;;;16.20;99.90;;;;;;2104589;28;20143;-71
2022/09/14 00:30:21;;;;;;;9.02;7.35;;;16.20;99.90;;;;;;2103974;28;20028;-71
2022/09/14 00:31:23;;;;;;;8.70;7.45;;;16.10;99.90;;;;;;2095384;28;20028;-71
2022/09/14 00:32:24;;;;;;;8.05;6.97;;;16.10;99.90;;;;;;2104988;28;20447;-70
2022/09/14 00:33:25;;;;;;;8.07;6.93;;;16.20;99.90;;;;;;2104940;28;20169;-72
2022/09/14 00:34:26;;;;;;;8.25;7.45;;;16.10;99.90;;;;;;2104689;28;20039;-72
2022/09/14 00:35:27;;;;;;;8.25;7.20;;;16.10;99.90;;;;;;2103868;28;20032;-72
2022/09/14 00:36:29;;;;;;;9.15;7.15;;;16.10;99.90;;;;;;2096422;28;20052;-71
2022/09/14 00:37:29;;;;;;;7.75;6.80;;;16.10;99.90;;;;;;2112397;28;20031;-72
2022/09/14 00:38:30;;;;;;;8.18;7.28;;;16.10;99.90;;;;;;2112664;28;20747;-71
2022/09/14 00:39:31;;;;;;;8.48;7.15;;;16.10;99.90;;;;;;2112598;28;20436;-72
2022/09/14 00:40:31;;;;;;;8.43;7.10;;;16.20;99.90;;;;;;2113101;28;20722;-72
2022/09/14 00:41:34;;;;;;;8.20;7.22;;;16.10;99.90;;;;;;2112052;28;20027;-71
2022/09/14 00:42:35;;;;;;;10.50;7.10;;;16.20;99.90;;;;;;2112444;28;20519;-71
2022/09/14 00:43:58;;;;;;;8.77;7.32;;;16.20;99.90;;;;;;2112458;28;20023;-71
2022/09/14 00:45:01;;;;;;;7.88;7.05;;;16.20;99.90;;;;;;2112523;28;20165;-72
2022/09/14 00:46:02;;;;;;;7.60;6.90;;;16.30;99.90;;;;;;2112502;28;20070;-71
2022/09/14 00:47:03;;;;;;;8.65;7.40;;;16.30;99.90;;;;;;2106725;28;20481;-71
2022/09/14 00:48:04;;;;;;;7.55;6.50;;;16.30;99.90;;;;;;2104724;28;20039;-70
2022/09/14 00:49:10;;;;;;;7.95;7.03;;;16.30;99.90;;;;;;2104824;28;20031;-71
2022/09/14 00:50:12;;;;;;;7.65;6.85;;;16.30;99.90;;;;;;2104763;28;20115;-71
2022/09/14 00:51:15;;;;;;;7.78;6.95;;;16.40;99.90;;;;;;2104585;28;20292;-71
2022/09/14 00:52:22;;;;;;;7.55;6.72;;;16.40;99.90;;;;;;2095315;28;20028;-70
2022/09/14 00:53:23;;;;;;;7.57;6.80;;;16.40;99.90;;;;;;2096561;28;20078;-70
2022/09/14 00:54:24;;;;;;;7.93;7.03;;;16.40;99.90;;;;;;2104402;28;20045;-70
2022/09/14 00:55:25;;;;;;;8.15;7.30;;;16.40;99.90;;;;;;2104176;28;20448;-70
2022/09/14 00:56:26;;;;;;;7.95;7.00;;;16.40;99.90;;;;;;2095797;28;20487;-70
2022/09/14 00:57:30;;;;;;;7.45;6.75;;;16.40;99.90;;;;;;2104326;28;20097;-70
2022/09/14 00:58:31;;;;;;;8.02;6.75;;;16.50;99.90;;;;;;2104639;28;20036;-70
2022/09/14 00:59:35;;;;;;;7.68;6.88;;;16.50;99.90;;;;;;2105053;28;20036;-69
2022/09/14 01:00:36;;;;;;;9.00;7.15;;;16.50;99.90;;;;;;2104517;28;20032;-70
2022/09/14 01:01:37;;;;;;;7.65;6.75;;;16.50;99.90;;;;;;2103956;28;20109;-69
2022/09/14 01:02:39;;;;;;;9.23;6.82;;;16.50;99.90;;;;;;2104374;28;20060;-70
2022/09/14 01:03:39;;;;;;;7.40;6.63;;;16.50;99.90;;;;;;2105004;28;20058;-70
2022/09/14 01:04:41;;;;;;;8.13;7.22;;;16.50;99.90;;;;;;2104123;28;20032;-70
2022/09/14 01:05:59;;;;;;;7.47;6.75;;;16.60;99.90;;;;;;2103841;28;20028;-70
2022/09/14 01:07:12;;;;;;;8.15;6.88;;;16.60;99.90;;;;;;2104515;28;20069;-69
2022/09/14 01:08:22;;;;;;;8.95;6.82;;;16.60;99.90;;;;;;2104158;28;20023;-70
2022/09/14 01:09:43;;;;;;;7.97;6.80;;;16.60;99.90;;;;;;2104651;28;20020;-70
2022/09/14 01:11:00;;;;;;;8.00;6.57;;;16.60;99.90;;;;;;2104526;28;20445;-70
2022/09/14 01:12:24;;;;;;;7.30;6.55;;;16.60;99.90;;;;;;2104175;28;20066;-70
2022/09/14 01:13:46;;;;;;;7.32;6.40;;;16.60;99.90;;;;;;2104039;28;20468;-70
2022/09/14 01:15:05;;;;;;;7.93;7.03;;;16.60;99.90;;;;;;2104408;28;20038;-70
2022/09/14 01:16:28;;;;;;;8.30;6.95;;;16.60;99.90;;;;;;2104334;28;20039;-70
2022/09/14 01:18:07;;;;;;;7.68;6.88;;;16.60;99.90;;;;;;2104022;28;20028;-70
2022/09/14 01:19:22;;;;;;;7.85;7.05;;;16.60;99.90;;;;;;2092294;28;20016;-70
2022/09/14 01:20:36;;;;;;;7.97;6.78;;;16.60;99.90;;;;;;2097608;28;20024;-71
2022/09/14 01:21:41;;;;;;;7.85;7.05;;;16.60;99.90;;;;;;2103753;28;20077;-70
2022/09/14 01:22:49;;;;;;;7.88;6.78;;;16.60;99.90;;;;;;2105590;28;20047;-70
2022/09/14 01:24:13;;;;;;;8.30;7.00;;;16.50;99.90;;;;;;2104602;28;20059;-70
2022/09/14 01:25:34;;;;;;;8.85;7.13;;;16.60;99.90;;;;;;2103136;28;20024;-71
2022/09/14 01:26:57;;;;;;;8.25;7.20;;;16.60;99.90;;;;;;2104374;28;20040;-71
2022/09/14 01:28:02;;;;;;;8.07;6.95;;;16.60;99.90;;;;;;2103736;28;20440;-71
2022/09/14 01:29:24;;;;;;;8.23;6.82;;;16.60;99.90;;;;;;2104060;28;20030;-70
2022/09/14 01:30:27;;;;;;;7.80;7.00;;;16.60;99.90;;;;;;2096472;28;20402;-71
2022/09/14 01:31:44;;;;;;;9.88;7.00;;;16.60;99.90;;;;;;2103251;28;20594;-71
2022/09/14 01:33:09;;;;;;;7.50;6.80;;;16.60;99.90;;;;;;2104012;28;20012;-71
2022/09/14 01:34:42;;;;;;;8.57;7.30;;;16.60;99.90;;;;;;2104469;28;20027;-71
2022/09/14 01:35:53;;;;;;;7.55;6.80;;;16.60;99.90;;;;;;2086954;28;20037;-71
2022/09/14 01:37:11;;;;;;;7.95;6.63;;;16.50;99.90;;;;;;2095919;28;20036;-71
2022/09/14 01:38:44;;;;;;;8.85;6.93;;;16.50;99.90;;;;;;2095116;28;20098;-71
2022/09/14 01:39:50;;;;;;;7.85;7.05;;;16.50;99.90;;;;;;2088603;28;20068;-71
2022/09/14 01:40:52;;;;;;;7.38;6.68;;;16.50;99.90;;;;;;2096199;28;20036;-71
2022/09/14 01:41:54;;;;;;;8.70;6.88;;;16.50;99.90;;;;;;2094822;28;20090;-72
2022/09/14 01:43:07;;;;;;;8.35;6.88;;;16.50;99.90;;;;;;2095479;28;20029;-71
2022/09/14 01:44:17;;;;;;;7.82;6.78;;;16.50;99.90;;;;;;2095407;28;20039;-71
2022/09/14 01:45:21;;;;;;;9.63;7.18;;;16.50;99.90;;;;;;2088201;28;20029;-71
2022/09/14 01:46:28;;;;;;;8.50;6.75;;;16.50;99.90;;;;;;2095492;28;20035;-71
2022/09/14 01:47:46;;;;;;;7.93;6.78;;;16.50;99.90;;;;;;2104515;28;20028;-71
2022/09/14 01:48:56;;;;;;;7.18;6.47;;;16.50;99.90;;;;;;2104194;28;20028;-71
2022/09/14 01:50:11;;;;;;;7.25;6.50;;;16.50;99.90;;;;;;2104349;28;20101;-71
2022/09/14 01:51:18;;;;;;;9.50;6.50;;;16.50;99.90;;;;;;2104458;28;20077;-71
2022/09/14 01:52:24;;;;;;;7.70;6.63;;;16.60;99.90;;;;;;2106037;28;20043;-71
2022/09/14 01:53:42;;;;;;;6.85;6.20;;;16.60;99.90;;;;;;2106126;28;20020;-71
2022/09/14 01:54:51;;;;;;;7.22;6.53;;;16.60;99.90;;;;;;2105974;28;20789;-71
2022/09/14 01:55:57;;;;;;;7.13;6.43;;;16.60;99.90;;;;;;2105343;28;20016;-71
2022/09/14 01:57:21;;;;;;;7.63;6.82;;;16.60;99.90;;;;;;2105438;28;20028;-71
2022/09/14 01:58:34;;;;;;;8.32;6.68;;;16.60;99.90;;;;;;2105211;28;20024;-71
2022/09/14 01:59:42;;;;;;;8.23;6.75;;;16.60;99.90;;;;;;2106312;28;20035;-71
2022/09/14 02:00:44;;;;;;;10.75;7.40;;;16.60;99.90;;;;;;2106227;28;20692;-71
2022/09/14 02:01:54;;;;;;;9.10;7.30;;;16.60;99.90;;;;;;2105527;28;20082;-71
2022/09/14 02:03:06;;;;;;;8.15;6.95;;;16.60;99.90;;;;;;2106215;28;20039;-71
2022/09/14 02:04:13;;;;;;;7.97;6.95;;;16.60;99.90;;;;;;2106123;28;20555;-71
2022/09/14 02:05:38;;;;;;;8.48;7.00;;;16.60;99.90;;;;;;2105889;28;20027;-71
2022/09/14 02:06:43;;;;;;;8.02;7.22;;;16.60;99.90;;;;;;2106080;28;20024;-72
2022/09/14 02:07:44;;;;;;;9.15;7.28;;;16.50;99.90;;;;;;2105825;28;20028;-71
2022/09/14 02:08:46;;;;;;;8.90;6.82;;;16.60;99.90;;;;;;2105542;28;20057;-72
2022/09/14 02:09:47;;;;;;;8.73;7.30;;;16.60;99.90;;;;;;2105924;28;20035;-71
2022/09/14 02:10:48;;;;;;;10.15;6.80;;;16.60;99.90;;;;;;2106009;28;20035;-71
2022/09/14 02:11:48;;;;;;;8.32;7.05;;;16.60;99.90;;;;;;2105482;28;20024;-71
2022/09/14 02:12:52;;;;;;;9.93;7.30;;;16.60;99.90;;;;;;2105857;28;20162;-71
2022/09/14 02:13:52;;;;;;;8.48;7.30;;;16.60;99.90;;;;;;2105269;28;20852;-70
2022/09/14 02:14:53;;;;;;;9.00;7.30;;;16.60;99.90;;;;;;2105369;28;20052;-69
2022/09/14 02:15:54;;;;;;;7.80;7.00;;;16.60;99.90;;;;;;2105937;28;20128;-70
2022/09/14 02:16:56;;;;;;;7.30;6.60;;;16.60;99.90;;;;;;2096908;28;20020;-70
2022/09/14 02:17:57;;;;;;;7.93;6.80;;;16.60;99.90;;;;;;2097077;28;20056;-70
2022/09/14 02:19:00;;;;;;;8.45;7.00;;;16.60;99.90;;;;;;2105577;28;20427;-70
2022/09/14 02:20:06;;;;;;;7.88;6.95;;;16.60;99.90;;;;;;2105273;28;20490;-70
2022/09/14 02:21:13;;;;;;;8.80;6.95;;;16.60;99.90;;;;;;2103240;28;20062;-70
2022/09/14 02:22:13;;;;;;;9.02;6.97;;;16.60;99.90;;;;;;2105560;28;20498;-69
2022/09/14 02:23:14;;;;;;;7.95;7.15;;;16.60;99.90;;;;;;2105188;28;20047;-70
2022/09/14 02:24:16;;;;;;;9.05;6.97;;;16.60;99.90;;;;;;2104675;28;20123;-70
2022/09/14 02:25:19;;;;;;;7.80;6.80;;;16.50;99.90;;;;;;2096662;28;20495;-70
2022/09/14 02:26:21;;;;;;;8.43;7.25;;;16.50;99.90;;;;;;2096715;28;20054;-70
2022/09/14 02:27:22;;;;;;;9.43;7.15;;;16.60;99.90;;;;;;2097501;28;20036;-70
2022/09/14 02:28:23;;;;;;;8.00;7.20;;;16.60;99.90;;;;;;2103421;28;20035;-70
2022/09/14 02:29:24;;;;;;;7.85;7.00;;;16.60;99.90;;;;;;2105603;28;20036;-70
2022/09/14 02:30:26;;;;;;;7.88;7.07;;;16.50;99.90;;;;;;2105668;28;20072;-71
2022/09/14 02:32:03;;;;;;;9.00;7.20;;;16.50;99.90;;;;;;2105368;28;20020;-71
2022/09/14 02:33:07;;;;;;;7.68;6.95;;;16.50;99.90;;;;;;2105786;28;20049;-71
2022/09/14 02:34:20;;;;;;;7.75;6.95;;;16.50;99.90;;;;;;2105850;28;20085;-71
2022/09/14 02:35:30;;;;;;;9.82;7.07;;;16.50;99.90;;;;;;2105740;28;20544;-70
2022/09/14 02:36:45;;;;;;;;;;;16.50;99.90;;;;;;2106055;28;20036;-70
2022/09/14 02:38:01;;;;;;;9.32;7.43;;;16.50;99.90;;;;;;2105772;28;19934;-70
2022/09/14 02:39:11;;;;;;;9.55;7.43;;;16.50;99.90;;;;;;2105404;28;20371;-71
2022/09/14 02:40:30;;;;;;;10.25;7.80;;;16.50;99.90;;;;;;2105731;28;20016;-71
2022/09/14 02:41:42;;;;;;;10.25;8.02;;;16.50;99.90;;;;;;2105283;28;20398;-71
2022/09/14 02:42:58;;;;;;;8.57;7.60;;;16.50;99.90;;;;;;2105624;28;20035;-71
2022/09/14 02:44:14;;;;;;;9.20;7.40;;;16.50;99.90;;;;;;2105759;28;20139;-71
2022/09/14 02:45:43;;;;;;;8.52;7.40;;;16.50;99.90;;;;;;2105655;28;20039;-71
2022/09/14 02:47:13;;;;;;;7.80;7.00;;;16.50;99.90;;;;;;2105356;28;20039;-71
2022/09/14 02:48:26;;;;;;;8.00;7.20;;;16.50;99.90;;;;;;2105257;28;20766;-71
2022/09/14 02:49:50;;;;;;;8.35;7.53;;;16.40;99.90;;;;;;2104976;28;20028;-71
2022/09/14 02:51:18;;;;;;;8.30;7.35;;;16.50;99.90;;;;;;2105302;28;20024;-71
2022/09/14 02:52:57;;;;;;;8.57;7.60;;;16.50;99.90;;;;;;2105597;28;20093;-71
2022/09/14 02:54:10;;;;;;;9.20;7.50;;;16.50;99.90;;;;;;2105614;28;20020;-72
2022/09/14 02:55:19;;;;;;;8.43;7.28;;;16.50;99.90;;;;;;2105437;28;20020;-72
2022/09/14 02:56:20;;;;;;;9.13;7.25;;;16.50;99.90;;;;;;2105287;28;20032;-71
2022/09/14 02:57:20;;;;;;;8.00;7.20;;;16.50;99.90;;;;;;2105612;28;20440;-72
2022/09/14 02:58:21;;;;;;;8.20;7.07;;;16.50;99.90;;;;;;2105139;28;20071;-71
2022/09/14 02:59:22;;;;;;;8.00;7.20;;;16.50;99.90;;;;;;2105466;28;20020;-71
2022/09/14 03:00:22;;;;;;;8.00;7.20;;;16.50;99.90;;;;;;2105413;28;20043;-71
2022/09/14 03:01:24;;;;;;;8.23;7.43;;;16.50;99.90;;;;;;2104947;28;20031;-71
2022/09/14 03:02:25;;;;;;;9.07;7.20;;;16.50;99.90;;;;;;2104840;28;20060;-71
2022/09/14 03:03:25;;;;;;;7.85;7.05;;;16.50;99.90;;;;;;2105244;28;20051;-71
2022/09/14 03:04:26;;;;;;;9.15;7.28;;;16.50;99.90;;;;;;2105261;28;20043;-71
2022/09/14 03:05:27;;;;;;;8.55;7.05;;;16.50;99.90;;;;;;2105189;28;20032;-71
2022/09/14 03:06:28;;;;;;;8.10;7.30;;;16.60;99.90;;;;;;2104576;28;20097;-71
2022/09/14 03:07:29;;;;;;;9.77;8.05;;;16.60;99.90;;;;;;2104861;28;20028;-71
2022/09/14 03:08:29;;;;;;;9.30;7.78;;;16.60;99.90;;;;;;2105145;28;20100;-71
2022/09/14 03:09:30;;;;;;;9.80;7.97;;;16.60;99.90;;;;;;2104888;28;20039;-71
2022/09/14 03:10:32;;;;;;;8.75;7.70;;;16.60;99.90;;;;;;2104929;28;20024;-72
2022/09/14 03:11:32;;;;;;;8.70;7.50;;;16.60;99.90;;;;;;2105092;28;20020;-71
2022/09/14 03:12:33;;;;;;;8.40;7.53;;;16.60;99.90;;;;;;2104778;28;20098;-71
2022/09/14 03:13:35;;;;;;;9.25;7.70;;;16.60;99.90;;;;;;2104839;28;20234;-71
2022/09/14 03:14:35;;;;;;;7.72;6.93;;;16.60;99.90;;;;;;2104536;28;20025;-72
2022/09/14 03:15:36;;;;;;;8.25;7.35;;;16.60;99.90;;;;;;2104718;28;20095;-71
2022/09/14 03:16:38;;;;;;;10.07;8.38;;;16.60;99.90;;;;;;2105189;28;20488;-72
2022/09/14 03:17:38;;;;;;;8.38;7.53;;;16.60;99.90;;;;;;2104624;28;20058;-71
2022/09/14 03:18:39;;;;;;;8.63;7.72;;;16.60;99.90;;;;;;2104112;28;20023;-71
2022/09/14 03:19:40;;;;;;;8.85;7.68;;;16.60;99.90;;;;;;2104673;28;20028;-71
2022/09/14 03:20:42;;;;;;;8.23;7.38;;;16.60;99.90;;;;;;2104432;28;20123;-71
2022/09/14 03:21:43;;;;;;;8.27;7.47;;;16.60;99.90;;;;;;2095726;28;20431;-71
2022/09/14 03:22:44;;;;;;;8.60;7.80;;;16.60;99.90;;;;;;2096275;28;20028;-71
2022/09/14 03:23:47;;;;;;;10.23;7.78;;;16.60;99.90;;;;;;2106402;28;20028;-71
2022/09/14 03:24:48;;;;;;;10.48;7.53;;;16.60;99.90;;;;;;2104386;28;20504;-71
2022/09/14 03:25:48;;;;;;;8.35;7.30;;;16.60;99.90;;;;;;2099735;28;20032;-71
2022/09/14 03:26:51;;;;;;;8.77;7.60;;;16.60;99.90;;;;;;2112951;28;20019;-72
2022/09/14 03:27:55;;;;;;;7.97;7.18;;;16.60;99.90;;;;;;2113134;28;20074;-71
2022/09/14 03:28:58;;;;;;;8.70;7.25;;;16.60;99.90;;;;;;2113347;28;20115;-71
2022/09/14 03:29:58;;;;;;;7.95;7.15;;;16.60;99.90;;;;;;2114024;28;20043;-71
2022/09/14 03:31:01;;;;;;;7.97;6.95;;;16.60;99.90;;;;;;2114768;28;20032;-71
2022/09/14 03:32:01;;;;;;;8.32;7.53;;;16.60;99.90;;;;;;2114499;28;20035;-71
2022/09/14 03:33:03;;;;;;;9.13;7.15;;;16.60;99.90;;;;;;2114087;28;20022;-71
2022/09/14 03:34:03;;;;;;;8.18;7.38;;;16.60;99.90;;;;;;2114809;28;20045;-71
2022/09/14 03:35:05;;;;;;;7.80;7.03;;;16.60;99.90;;;;;;2114235;28;20495;-71
2022/09/14 03:36:17;;;;;;;8.73;7.75;;;16.60;99.90;;;;;;2114628;27;20479;-71
2022/09/14 03:37:17;;;;;;;8.15;7.35;;;16.60;99.90;;;;;;2113357;28;20023;-72
2022/09/14 03:38:18;;;;;;;8.48;7.57;;;16.60;99.90;;;;;;2113109;28;20098;-73
2022/09/14 03:39:19;;;;;;;8.27;7.43;;;16.60;99.90;;;;;;2115011;28;20027;-72
2022/09/14 03:40:19;;;;;;;8.43;7.47;;;16.60;99.90;;;;;;2114370;28;20366;-71
2022/09/14 03:41:22;;;;;;;8.02;7.22;;;16.60;99.90;;;;;;2113427;28;20429;-71
2022/09/14 03:42:22;;;;;;;8.35;7.32;;;16.60;99.90;;;;;;2113623;28;20447;-71
2022/09/14 03:43:23;;;;;;;8.52;7.57;;;16.60;99.90;;;;;;2113653;28;20020;-71
2022/09/14 03:44:24;;;;;;;7.95;7.15;;;16.60;99.90;;;;;;2113499;28;20031;-71
2022/09/14 03:45:25;;;;;;;8.70;7.60;;;16.60;99.90;;;;;;2113683;28;20034;-71
2022/09/14 03:46:26;;;;;;;8.45;7.20;;;16.60;99.90;;;;;;2112757;28;20031;-71
2022/09/14 03:47:27;;;;;;;7.93;7.13;;;16.60;99.90;;;;;;2105321;28;20131;-71
2022/09/14 03:48:28;;;;;;;8.30;7.03;;;16.60;99.90;;;;;;2104909;28;20500;-71
2022/09/14 03:49:29;;;;;;;9.07;7.32;;;16.60;99.90;;;;;;2105123;28;20028;-71
2022/09/14 03:50:30;;;;;;;7.82;7.03;;;16.60;99.90;;;;;;2105062;28;20027;-71
2022/09/14 03:51:32;;;;;;;7.82;7.13;;;16.60;99.90;;;;;;2104541;28;20463;-71
2022/09/14 03:52:33;;;;;;;8.00;7.20;;;16.60;99.90;;;;;;2104888;28;20036;-71
2022/09/14 03:53:35;;;;;;;8.13;7.30;;;16.60;99.90;;;;;;2105169;28;20423;-72
2022/09/14 03:54:35;;;;;;;7.97;7.18;;;16.60;99.90;;;;;;2105040;28;20035;-71
2022/09/14 03:55:39;;;;;;;9.10;7.22;;;16.60;99.90;;;;;;2105128;28;20075;-72
2022/09/14 03:56:40;;;;;;;8.27;7.38;;;16.60;99.90;;;;;;2104316;28;20087;-71
2022/09/14 03:57:40;;;;;;;9.27;7.50;;;16.60;99.90;;;;;;2104371;28;20505;-71
2022/09/14 03:58:42;;;;;;;8.80;7.47;;;16.60;99.90;;;;;;2104673;28;20103;-72
2022/09/14 03:59:43;;;;;;;9.88;7.60;;;16.60;99.90;;;;;;2105012;28;20035;-72
2022/09/14 04:00:43;;;;;;;9.38;7.93;;;16.60;99.90;;;;;;2104947;28;20020;-72
2022/09/14 04:01:44;;;;;;;9.07;8.18;;;16.60;99.90;;;;;;2104588;28;20028;-71
2022/09/14 04:02:45;;;;;;;9.25;7.65;;;16.60;99.90;;;;;;2104038;28;20020;-71
2022/09/14 04:03:46;;;;;;;8.95;7.90;;;16.60;99.90;;;;;;2104461;28;20028;-69
2022/09/14 04:04:47;;;;;;;9.18;7.85;;;16.60;99.90;;;;;;2105126;28;20043;-71
2022/09/14 04:05:55;;;;;;;9.10;7.43;;;16.60;99.90;;;;;;2105012;28;20106;-71
2022/09/14 04:06:55;;;;;;;10.80;7.78;;;16.60;99.90;;;;;;2104898;28;20028;-72
2022/09/14 04:07:56;;;;;;;10.20;8.60;;;16.60;99.90;;;;;;2104825;28;20046;-71
2022/09/14 04:08:58;;;;;;;10.10;8.10;;;16.60;99.90;;;;;;2104711;28;20054;-72
2022/09/14 04:09:59;;;;;;;11.52;7.63;;;16.50;99.90;;;;;;2104936;28;20036;-72
2022/09/14 04:11:05;;;;;;;8.60;7.70;;;16.50;99.90;;;;;;2104973;28;20111;-72
2022/09/14 04:12:06;;;;;;;7.97;7.18;;;16.50;99.90;;;;;;2104525;28;20040;-71
2022/09/14 04:13:07;;;;;;;8.48;7.60;;;16.50;99.90;;;;;;2101040;28;20031;-72
2022/09/14 04:14:07;;;;;;;8.98;7.47;;;16.50;99.90;;;;;;2102903;28;20020;-73
2022/09/14 04:15:08;;;;;;;8.52;7.72;;;16.50;99.90;;;;;;2105249;28;20031;-72
2022/09/14 04:16:09;;;;;;;8.50;7.32;;;16.50;99.90;;;;;;2105250;28;20171;-73
2022/09/14 04:17:10;;;;;;;8.48;7.45;;;16.50;99.90;;;;;;2103875;28;20116;-72
2022/09/14 04:18:11;;;;;;;9.05;7.68;;;16.50;99.90;;;;;;2105111;28;20108;-72
2022/09/14 04:19:12;;;;;;;8.38;7.57;;;16.50;99.90;;;;;;2105165;28;20020;-72
2022/09/14 04:20:12;;;;;;;8.45;7.35;;;16.50;99.90;;;;;;2105120;28;20117;-72
2022/09/14 04:21:18;;;;;;;8.45;7.65;;;16.50;99.90;;;;;;2105973;28;20038;-72
2022/09/14 04:22:19;;;;;;;7.97;7.18;;;16.50;99.90;;;;;;2105749;28;20028;-72
2022/09/14 04:23:20;;;;;;;9.85;7.20;;;16.50;99.90;;;;;;2106119;28;20043;-72
2022/09/14 04:24:21;;;;;;;7.90;7.18;;;16.50;99.90;;;;;;2105811;28;20119;-72
2022/09/14 04:25:22;;;;;;;8.70;7.80;;;16.50;99.90;;;;;;2105141;28;20035;-72
2022/09/14 04:26:26;;;;;;;9.07;7.65;;;16.50;99.90;;;;;;2105540;28;20020;-72
2022/09/14 04:27:27;;;;;;;8.18;7.15;;;16.50;99.90;;;;;;2106294;28;20024;-72
2022/09/14 04:28:27;;;;;;;8.05;7.25;;;16.50;99.90;;;;;;2104860;28;20048;-72
2022/09/14 04:29:29;;;;;;;8.95;7.30;;;16.50;99.90;;;;;;2105074;28;20047;-74
2022/09/14 04:30:29;;;;;;;9.98;7.85;;;16.50;99.90;;;;;;2104921;28;20849;-73
2022/09/14 04:31:31;;;;;;;8.10;7.30;;;16.50;99.90;;;;;;2104466;28;20038;-73
2022/09/14 04:32:31;;;;;;;8.80;7.90;;;16.50;99.90;;;;;;2105032;28;20033;-73
2022/09/14 04:33:34;;;;;;;8.18;7.40;;;16.50;99.90;;;;;;2105018;28;20060;-74
2022/09/14 04:34:34;;;;;;;9.30;7.93;;;16.50;99.90;;;;;;2104683;28;20107;-74
2022/09/14 04:35:36;;;;;;;8.57;7.68;;;16.60;99.90;;;;;;2104853;28;20028;-73
2022/09/14 04:36:37;;;;;;;9.75;7.40;;;16.60;99.90;;;;;;2105086;28;20031;-74
2022/09/14 04:37:37;;;;;;;8.95;8.05;;;16.50;99.90;;;;;;2104154;28;20055;-74
2022/09/14 04:38:39;;;;;;;8.38;7.47;;;16.60;99.90;;;;;;2103579;28;20498;-74
2022/09/14 04:39:41;;;;;;;10.48;7.78;;;16.60;99.90;;;;;;2104189;28;20032;-74
2022/09/14 04:40:41;;;;;;;8.40;7.60;;;16.60;99.90;;;;;;2105048;28;20074;-74
2022/09/14 04:41:42;;;;;;;8.55;7.65;;;16.60;99.90;;;;;;2104591;28;20504;-74
2022/09/14 04:42:43;;;;;;;9.48;8.10;;;16.60;99.90;;;;;;2104265;28;20058;-73
2022/09/14 04:43:45;;;;;;;9.35;8.05;;;16.60;99.90;;;;;;2104418;28;20074;-73
2022/09/14 04:44:45;;;;;;;8.90;7.63;;;16.60;99.90;;;;;;2104887;28;20522;-73
2022/09/14 04:45:46;;;;;;;8.68;7.60;;;16.60;99.90;;;;;;2105172;28;20058;-73
2022/09/14 04:46:47;;;;;;;8.93;7.57;;;16.60;99.90;;;;;;2104871;28;20020;-73
2022/09/14 04:47:47;;;;;;;8.63;7.70;;;16.60;99.90;;;;;;2104433;28;20457;-73
2022/09/14 04:48:49;;;;;;;8.23;7.15;;;16.60;99.90;;;;;;2104315;28;20039;-73
2022/09/14 04:49:49;;;;;;;8.00;7.20;;;16.60;99.90;;;;;;2105031;28;20032;-73
2022/09/14 04:50:50;;;;;;;8.77;7.88;;;16.60;99.90;;;;;;2104340;28;20640;-72
2022/09/14 04:51:50;;;;;;;8.13;7.35;;;16.60;99.90;;;;;;2104226;28;20742;-72
2022/09/14 04:52:51;;;;;;;7.97;7.00;;;16.50;99.90;;;;;;2104992;28;20554;-72
2022/09/14 04:53:55;;;;;;;9.23;7.28;;;16.50;99.90;;;;;;2105387;28;20111;-73
2022/09/14 04:54:55;;;;;;;8.52;7.18;;;16.50;99.90;;;;;;2105217;28;20024;-73
2022/09/14 04:56:00;;;;;;;9.07;7.50;;;16.60;99.90;;;;;;2105155;28;20095;-74
2022/09/14 04:57:01;;;;;;;7.80;7.00;;;16.50;99.90;;;;;;2104729;28;20617;-72
2022/09/14 04:58:01;;;;;;;8.50;7.60;;;16.60;99.90;;;;;;2104944;28;20077;-74
2022/09/14 04:59:03;;;;;;;10.05;7.65;;;16.60;99.90;;;;;;2103985;28;20024;-74
2022/09/14 05:00:04;;;;;;;8.00;7.20;;;16.60;99.90;;;;;;2104083;28;20041;-74
2022/09/14 05:01:17;;;;;;;9.30;7.35;;;16.60;99.90;;;;;;2104713;28;20027;-74
2022/09/14 05:02:18;;;;;;;8.07;7.28;;;16.60;99.90;;;;;;2104814;28;20081;-74
2022/09/14 05:03:18;;;;;;;7.72;7.03;;;16.60;99.90;;;;;;2104597;28;20058;-74
2022/09/14 05:04:19;;;;;;;10.20;7.05;;;16.60;99.90;;;;;;2104827;28;20031;-74
2022/09/14 05:05:20;;;;;;;9.13;7.30;;;16.60;99.90;;;;;;2104945;28;20031;-74
2022/09/14 05:06:23;;;;;;;8.88;7.07;;;16.60;99.90;;;;;;2105264;28;20040;-74
2022/09/14 05:07:24;;;;;;;8.13;7.13;;;16.60;99.90;;;;;;2108176;28;20161;-74
2022/09/14 05:08:24;;;;;;;8.23;6.93;;;16.60;99.90;;;;;;2107866;28;20143;-74
2022/09/14 05:09:25;;;;;;;8.65;7.07;;;16.60;99.90;;;;;;2104032;28;20036;-73
2022/09/14 05:10:25;;;;;;;7.90;7.10;;;16.60;99.90;;;;;;2108475;28;20027;-73
2022/09/14 05:11:29;;;;;;;8.45;7.55;;;16.60;99.90;;;;;;2108161;28;20096;-73
2022/09/14 05:12:30;;;;;;;7.90;7.10;;;16.60;99.90;;;;;;2108660;28;20032;-74
2022/09/14 05:13:30;;;;;;;9.15;7.40;;;16.60;99.90;;;;;;2109405;28;20062;-72
2022/09/14 05:14:31;;;;;;;8.20;7.35;;;16.60;99.90;;;;;;2109533;28;20044;-73
2022/09/14 05:15:32;;;;;;;9.45;7.78;;;16.60;99.90;;;;;;2107097;28;20020;-73
2022/09/14 05:16:35;;;;;;;9.90;7.93;;;16.70;99.90;;;;;;2105739;28;20410;-73
2022/09/14 05:17:35;;;;;;;10.60;7.55;;;16.70;99.90;;;;;;2105645;28;20031;-74
2022/09/14 05:18:36;;;;;;;8.55;7.63;;;16.70;99.90;;;;;;2105080;28;20020;-74
2022/09/14 05:19:37;;;;;;;8.55;7.40;;;16.70;99.90;;;;;;2107052;28;20028;-73
2022/09/14 05:20:37;;;;;;;10.35;7.78;;;16.70;99.90;;;;;;2112878;28;20116;-74
2022/09/14 05:21:38;;;;;;;8.77;7.80;;;16.70;99.90;;;;;;2112299;28;20086;-73
2022/09/14 05:22:39;;;;;;;8.50;7.63;;;16.70;99.90;;;;;;2113457;28;20512;-74
2022/09/14 05:23:40;;;;;;;8.73;7.18;;;16.70;99.90;;;;;;2113152;28;20024;-73
2022/09/14 05:24:40;;;;;;;9.10;7.43;;;16.70;99.90;;;;;;2113384;28;20028;-74
2022/09/14 05:25:41;;;;;;;8.25;7.45;;;16.70;99.90;;;;;;2112701;28;20035;-73
2022/09/14 05:26:43;;;;;;;8.30;7.47;;;16.70;99.90;;;;;;2112880;28;20030;-73
2022/09/14 05:27:43;;;;;;;8.13;7.32;;;16.70;99.90;;;;;;2112744;28;20504;-74
2022/09/14 05:28:49;;;;;;;9.00;7.88;;;16.70;99.90;;;;;;2103912;28;20024;-74
2022/09/14 05:29:50;;;;;;;9.23;7.43;;;16.70;99.90;;;;;;2112591;28;20467;-74
2022/09/14 05:30:51;;;;;;;10.52;7.88;;;16.70;99.90;;;;;;2113323;28;20023;-74
2022/09/14 05:31:51;;;;;;;8.30;7.50;;;16.80;99.90;;;;;;2113078;28;20028;-74
2022/09/14 05:32:52;;;;;;;9.60;7.57;;;16.80;99.90;;;;;;2113235;28;20031;-74
2022/09/14 05:33:53;;;;;;;9.85;8.00;;;16.80;99.90;;;;;;2113471;28;20385;-74
2022/09/14 05:34:54;;;;;;;8.25;7.43;;;16.80;99.90;;;;;;2113294;28;20016;-74
2022/09/14 05:36:04;;;;;;;9.73;7.80;;;16.80;99.90;;;;;;2113049;28;20043;-73